Time;durP1;ratioP1;P1;durP2;ratioP2;P2;SDS_P1;SDS_P2;PMS_P1;PMS_P2;Temp;Humidity;BMP_temperature;BMP_pressure;BME280_temperature;BME280_humidity;BME280_pressure;Samples;Min_cycle;Max_cycle;Signal;HPM_P1;HPM_P2
2021/12/02 00:01:27;;;;;;;4.50;1.30;;;20.70;56.00;;;;;;6146026;22;92517;-62
2021/12/02 00:03:54;;;;;;;3.28;1.52;;;20.70;56.00;;;;;;6145177;22;92358;-63
2021/12/02 00:06:20;;;;;;;2.33;1.42;;;20.70;56.00;;;;;;6145074;22;92034;-62
2021/12/02 00:08:48;;;;;;;3.63;1.70;;;20.70;56.00;;;;;;6144402;22;92787;-62
2021/12/02 00:11:15;;;;;;;3.92;1.80;;;20.70;56.00;;;;;;6144071;22;93643;-62
2021/12/02 00:13:57;;;;;;;5.35;1.73;;;20.70;56.60;;;;;;6145761;22;93669;-62
2021/12/02 00:21:45;;;;;;;4.55;1.80;;;20.70;56.10;;;;;;6145571;22;93076;-62
2021/12/02 00:24:14;;;;;;;2.20;1.20;;;20.60;56.00;;;;;;6144444;22;92678;-62
2021/12/02 00:26:40;;;;;;;5.05;1.52;;;20.60;56.10;;;;;;6144096;22;92281;-62
2021/12/02 00:29:10;;;;;;;3.03;1.35;;;20.60;56.10;;;;;;6145328;22;92522;-62
2021/12/02 00:31:42;;;;;;;2.67;1.23;;;20.60;56.10;;;;;;6145823;22;91756;-62
2021/12/02 00:34:10;;;;;;;4.45;1.63;;;20.60;56.20;;;;;;6145999;22;92373;-62
2021/12/02 00:36:38;;;;;;;2.95;1.60;;;20.60;56.20;;;;;;6144376;22;92908;-60
2021/12/02 00:39:11;;;;;;;2.40;1.33;;;20.60;56.20;;;;;;6144275;22;93594;-60
2021/12/02 00:41:37;;;;;;;2.83;1.50;;;20.60;56.70;;;;;;6145594;22;93229;-60
2021/12/02 00:44:03;;;;;;;3.20;1.33;;;20.60;56.20;;;;;;6143957;22;92460;-60
2021/12/02 00:46:33;;;;;;;1.95;1.63;;;20.50;56.20;;;;;;6144189;22;93152;-63
2021/12/02 00:49:03;;;;;;;3.72;1.70;;;20.50;56.20;;;;;;6146464;22;92620;-60
2021/12/02 00:51:31;;;;;;;2.78;1.60;;;20.50;56.30;;;;;;6146310;22;92837;-60
2021/12/02 00:54:01;;;;;;;3.72;1.27;;;20.50;56.30;;;;;;6146203;22;92844;-60
2021/12/02 00:56:27;;;;;;;3.30;1.40;;;20.50;56.30;;;;;;6145804;22;92077;-59
2021/12/02 00:58:54;;;;;;;2.28;1.13;;;20.50;56.30;;;;;;6145331;22;93653;-59
2021/12/02 01:01:26;;;;;;;3.58;1.60;;;20.50;56.30;;;;;;6145310;22;93055;-60
2021/12/02 01:03:58;;;;;;;3.28;2.08;;;20.50;56.30;;;;;;6146200;22;93776;-60
2021/12/02 01:06:25;;;;;;;5.75;1.80;;;20.50;56.40;;;;;;6147274;22;92700;-60
2021/12/02 01:08:51;;;;;;;1.90;1.17;;;20.50;56.40;;;;;;6145234;22;93085;-59
2021/12/02 01:11:18;;;;;;;3.83;1.42;;;20.50;56.40;;;;;;6144868;22;96313;-60
2021/12/02 01:13:44;;;;;;;4.03;1.50;;;20.50;56.40;;;;;;6146802;22;92717;-60
2021/12/02 01:16:11;;;;;;;3.60;1.67;;;20.40;56.30;;;;;;6146488;22;92372;-60
2021/12/02 01:18:36;;;;;;;2.38;1.17;;;20.40;56.30;;;;;;6145570;22;94694;-60
2021/12/02 01:21:03;;;;;;;3.95;1.45;;;20.40;56.40;;;;;;6146798;22;92816;-59
2021/12/02 01:23:31;;;;;;;4.13;1.30;;;20.40;56.40;;;;;;6145652;22;92229;-60
2021/12/02 01:26:07;;;;;;;4.13;1.75;;;20.40;56.40;;;;;;6145427;22;92188;-59
2021/12/02 01:28:34;;;;;;;4.20;2.10;;;20.40;56.40;;;;;;6143728;22;95494;-60
2021/12/02 01:31:01;;;;;;;2.65;1.17;;;20.40;56.50;;;;;;6144787;22;93925;-60
2021/12/02 01:33:28;;;;;;;5.45;1.60;;;20.40;56.50;;;;;;6145571;22;92960;-60
2021/12/02 01:36:02;;;;;;;4.05;1.60;;;20.40;56.50;;;;;;6147119;22;92569;-60
2021/12/02 01:38:29;;;;;;;3.30;1.35;;;20.40;56.50;;;;;;6145439;22;93264;-59
2021/12/02 01:40:57;;;;;;;3.53;1.70;;;20.30;56.50;;;;;;6144527;22;94152;-61
2021/12/02 01:43:44;;;;;;;2.88;1.40;;;20.40;56.50;;;;;;6146695;22;93217;-59
2021/12/02 01:46:10;;;;;;;3.22;1.45;;;20.30;56.50;;;;;;6145771;22;91423;-61
2021/12/02 01:48:41;;;;;;;2.63;1.55;;;20.30;56.50;;;;;;6145303;22;96276;-60
2021/12/02 01:51:11;;;;;;;4.13;1.35;;;20.30;56.50;;;;;;6145243;22;95474;-60
2021/12/02 01:53:39;;;;;;;2.15;1.13;;;20.30;56.60;;;;;;6145898;22;93989;-60
2021/12/02 01:56:11;;;;;;;2.60;1.30;;;20.30;56.60;;;;;;6146277;22;93108;-60
2021/12/02 01:58:46;;;;;;;3.70;1.50;;;20.30;56.60;;;;;;6145991;22;93083;-59
2021/12/02 02:01:22;;;;;;;2.70;1.30;;;20.30;56.60;;;;;;6146054;22;92604;-60
2021/12/02 02:03:49;;;;;;;2.03;1.23;;;20.30;56.60;;;;;;6145005;22;92542;-59
2021/12/02 02:06:27;;;;;;;1.77;1.00;;;20.30;56.70;;;;;;6144730;22;92945;-60
2021/12/02 02:08:58;;;;;;;2.63;1.13;;;20.30;56.70;;;;;;6144803;22;92611;-59
2021/12/02 02:11:29;;;;;;;2.08;1.23;;;20.20;56.60;;;;;;6145222;22;96139;-60
2021/12/02 02:13:56;;;;;;;3.15;1.30;;;20.20;56.70;;;;;;6147118;22;92319;-60
2021/12/02 02:16:22;;;;;;;2.75;1.50;;;20.20;56.70;;;;;;6145549;22;94016;-60
2021/12/02 02:18:49;;;;;;;3.53;1.17;;;20.20;56.70;;;;;;6146134;22;94489;-60
2021/12/02 02:21:18;;;;;;;4.07;1.15;;;20.20;56.80;;;;;;6145472;22;96465;-59
2021/12/02 02:23:51;;;;;;;1.80;1.15;;;20.20;56.80;;;;;;6145404;22;92594;-59
2021/12/02 02:26:25;;;;;;;2.22;1.17;;;20.20;56.80;;;;;;6145133;22;92918;-60
2021/12/02 02:28:51;;;;;;;2.67;1.05;;;20.20;56.80;;;;;;6143273;22;93131;-60
2021/12/02 02:31:17;;;;;;;2.10;0.93;;;20.20;56.80;;;;;;6145239;22;93106;-60
2021/12/02 02:33:51;;;;;;;2.40;1.35;;;20.10;56.80;;;;;;6146924;22;92387;-59
2021/12/02 02:36:20;;;;;;;2.05;1.17;;;20.10;56.80;;;;;;6145499;22;91890;-60
2021/12/02 02:38:55;;;;;;;3.35;1.33;;;20.10;56.80;;;;;;6144122;22;93088;-60
2021/12/02 02:41:30;;;;;;;1.45;0.98;;;20.10;56.80;;;;;;6145722;22;93207;-64
2021/12/02 02:43:58;;;;;;;4.43;1.20;;;20.10;56.80;;;;;;6146242;22;93955;-59
2021/12/02 02:46:26;;;;;;;3.53;1.13;;;20.10;56.80;;;;;;6146164;22;92105;-59
2021/12/02 02:48:53;;;;;;;2.42;1.00;;;20.10;56.80;;;;;;6143943;22;94482;-59
2021/12/02 02:51:19;;;;;;;2.85;1.20;;;20.10;56.90;;;;;;6144298;22;92833;-60
2021/12/02 02:53:51;;;;;;;2.92;1.02;;;20.10;56.90;;;;;;6146041;22;92778;-60
2021/12/02 02:56:18;;;;;;;3.42;1.33;;;20.10;56.90;;;;;;6146272;22;92670;-60
2021/12/02 03:11:53;;;;;;;2.67;1.00;;;20.00;56.90;;;;;;6144232;22;93399;-59
2021/12/02 03:14:34;;;;;;;2.60;1.20;;;20.00;56.90;;;;;;6146417;22;92512;-59
2021/12/02 03:17:00;;;;;;;1.88;1.10;;;20.00;56.90;;;;;;6145104;22;92847;-60
2021/12/02 03:19:28;;;;;;;2.60;0.90;;;20.00;56.90;;;;;;6145940;22;93229;-59
2021/12/02 03:21:58;;;;;;;2.45;1.10;;;20.00;56.80;;;;;;6145095;22;95715;-60
2021/12/02 03:24:24;;;;;;;2.33;1.00;;;20.00;56.80;;;;;;6145516;22;92812;-59
2021/12/02 03:26:51;;;;;;;2.45;1.00;;;20.00;56.80;;;;;;6144442;22;91721;-60
2021/12/02 03:29:17;;;;;;;1.23;0.85;;;20.00;56.80;;;;;;6145540;22;92614;-60
2021/12/02 03:31:43;;;;;;;2.53;1.13;;;20.00;56.80;;;;;;6146133;22;92890;-60
2021/12/02 03:34:12;;;;;;;2.47;0.90;;;20.00;56.80;;;;;;6146540;22;93569;-60
2021/12/02 03:36:38;;;;;;;3.58;1.48;;;20.00;56.80;;;;;;6146874;22;92789;-59
2021/12/02 03:39:06;;;;;;;2.63;1.00;;;20.00;56.70;;;;;;6144333;22;95860;-59
2021/12/02 03:41:34;;;;;;;2.70;1.30;;;20.00;56.70;;;;;;6145793;22;93365;-59
2021/12/02 03:43:59;;;;;;;2.67;1.10;;;20.00;56.80;;;;;;6144723;22;92764;-60
2021/12/02 03:46:25;;;;;;;1.95;1.20;;;19.90;56.70;;;;;;6144976;22;92636;-60
2021/12/02 03:48:53;;;;;;;2.97;1.15;;;19.90;56.70;;;;;;6146059;22;93045;-60
2021/12/02 03:51:19;;;;;;;1.55;0.90;;;19.90;56.80;;;;;;6146328;22;92239;-60
2021/12/02 03:53:46;;;;;;;1.55;0.98;;;19.90;56.70;;;;;;6145435;22;92603;-60
2021/12/02 03:56:12;;;;;;;3.60;1.05;;;19.90;56.70;;;;;;6146313;22;92895;-60
2021/12/02 03:58:40;;;;;;;5.05;0.98;;;19.90;56.70;;;;;;6143831;22;96717;-60
2021/12/02 04:01:09;;;;;;;2.28;0.93;;;19.90;56.70;;;;;;6144205;22;93717;-60
2021/12/02 04:03:35;;;;;;;1.67;0.80;;;19.90;56.60;;;;;;6146676;22;92875;-61
2021/12/02 04:06:01;;;;;;;3.90;0.75;;;19.90;56.60;;;;;;6144942;22;92307;-60
2021/12/02 04:08:31;;;;;;;2.83;0.90;;;19.90;56.60;;;;;;6144652;22;95775;-60
2021/12/02 04:13:59;;;;;;;1.63;1.00;;;19.90;56.60;;;;;;6128570;22;92405;-60
2021/12/02 04:16:27;;;;;;;2.92;1.08;;;19.80;56.60;;;;;;6145201;22;91414;-60
2021/12/02 04:18:52;;;;;;;1.52;1.13;;;19.80;56.80;;;;;;6144045;22;96069;-60
2021/12/02 04:21:18;;;;;;;1.98;0.95;;;19.80;56.60;;;;;;6143629;22;95449;-60
2021/12/02 04:23:44;;;;;;;2.28;1.00;;;19.80;56.50;;;;;;6144543;22;93227;-59
2021/12/02 04:26:09;;;;;;;1.80;0.80;;;19.80;56.60;;;;;;6144234;22;92914;-60
2021/12/02 04:28:35;;;;;;;1.98;1.02;;;19.80;56.60;;;;;;6144661;22;96538;-59
2021/12/02 04:31:01;;;;;;;1.88;0.93;;;19.80;56.60;;;;;;6145425;22;93147;-59
2021/12/02 04:33:28;;;;;;;2.00;1.20;;;19.80;56.60;;;;;;6146156;22;92144;-59
2021/12/02 04:35:54;;;;;;;2.10;1.00;;;19.80;56.50;;;;;;6146225;22;92648;-60
2021/12/02 04:38:20;;;;;;;1.15;0.75;;;19.80;56.50;;;;;;6145613;22;92931;-59
2021/12/02 04:40:46;;;;;;;1.75;0.80;;;19.80;56.50;;;;;;6145649;22;92822;-60
2021/12/02 04:43:12;;;;;;;3.28;0.93;;;19.80;56.50;;;;;;6145909;22;92120;-59
2021/12/02 04:45:38;;;;;;;5.80;1.60;;;19.80;56.40;;;;;;6145727;22;92925;-59
2021/12/02 04:48:04;;;;;;;1.85;0.80;;;19.80;56.50;;;;;;6145452;22;94225;-60
2021/12/02 04:50:29;;;;;;;2.65;0.82;;;19.80;56.40;;;;;;6145094;22;95656;-59
2021/12/02 04:52:55;;;;;;;2.08;0.93;;;19.80;56.40;;;;;;6145889;22;93001;-59
2021/12/02 04:55:21;;;;;;;0.90;0.60;;;19.80;56.40;;;;;;6145583;22;92868;-60
2021/12/02 04:57:48;;;;;;;1.65;0.70;;;19.70;56.30;;;;;;6145475;22;93244;-59
2021/12/02 05:00:15;;;;;;;1.50;0.80;;;19.70;56.30;;;;;;6144409;22;95653;-60
2021/12/02 05:02:41;;;;;;;1.80;0.70;;;19.70;56.30;;;;;;6145514;22;92959;-59
2021/12/02 05:05:07;;;;;;;0.80;0.57;;;19.70;56.30;;;;;;6144876;22;91849;-59
2021/12/02 05:07:34;;;;;;;1.85;0.77;;;19.70;56.30;;;;;;6143516;22;95822;-61
2021/12/02 05:10:00;;;;;;;1.10;0.60;;;19.70;56.20;;;;;;6145868;22;92802;-59
2021/12/02 05:12:26;;;;;;;1.67;0.77;;;19.60;56.20;;;;;;6145535;22;93759;-60
2021/12/02 05:14:52;;;;;;;2.28;0.90;;;19.70;56.20;;;;;;6145385;22;92581;-59
2021/12/02 05:17:18;;;;;;;2.03;0.70;;;19.70;56.20;;;;;;6144022;22;94379;-59
2021/12/02 05:19:44;;;;;;;2.75;0.80;;;19.70;56.20;;;;;;6145173;22;92760;-60
2021/12/02 05:22:13;;;;;;;2.97;1.35;;;19.60;56.10;;;;;;6145361;22;93060;-59
2021/12/02 05:24:38;;;;;;;1.50;0.77;;;19.60;56.20;;;;;;6144685;22;92906;-59
2021/12/02 05:27:04;;;;;;;2.50;0.90;;;19.60;56.10;;;;;;6143123;22;93185;-60
2021/12/02 05:29:31;;;;;;;1.45;0.70;;;19.60;56.10;;;;;;6144796;22;92861;-60
2021/12/02 05:31:56;;;;;;;2.42;1.20;;;19.60;56.10;;;;;;6144023;22;92410;-59
2021/12/02 05:34:22;;;;;;;2.03;1.00;;;19.60;56.00;;;;;;6144409;22;92792;-60
2021/12/02 05:36:47;;;;;;;2.35;0.77;;;19.60;56.00;;;;;;6143728;22;94133;-60
2021/12/02 05:39:13;;;;;;;2.47;0.90;;;19.60;55.90;;;;;;6143976;22;93720;-60
2021/12/02 05:41:39;;;;;;;1.60;0.90;;;19.60;55.90;;;;;;6145435;22;92490;-60
2021/12/02 05:44:07;;;;;;;1.80;0.70;;;19.60;55.90;;;;;;6144158;22;92358;-60
2021/12/02 05:46:33;;;;;;;1.40;0.68;;;19.70;56.00;;;;;;6145241;22;92810;-60
2021/12/02 05:48:59;;;;;;;1.23;0.75;;;19.60;55.90;;;;;;6118570;22;94603;-60
2021/12/02 05:51:24;;;;;;;1.73;0.90;;;19.60;55.90;;;;;;6145207;22;92935;-60
2021/12/02 05:53:50;;;;;;;2.47;0.95;;;19.60;56.00;;;;;;6146602;22;91779;-60
2021/12/02 05:56:16;;;;;;;1.33;0.60;;;19.60;56.10;;;;;;6146524;22;93288;-60
2021/12/02 05:58:41;;;;;;;1.25;0.70;;;19.50;56.00;;;;;;6145974;22;92544;-59
2021/12/02 06:01:10;;;;;;;1.77;1.00;;;19.50;56.10;;;;;;6146218;22;93592;-60
2021/12/02 06:03:40;;;;;;;1.63;0.70;;;19.60;56.10;;;;;;6146329;22;92730;-60
2021/12/02 06:06:06;;;;;;;3.30;0.90;;;19.50;56.10;;;;;;6145142;22;95786;-59
2021/12/02 06:08:32;;;;;;;2.10;0.80;;;19.50;56.10;;;;;;6145993;22;92197;-59
2021/12/02 06:10:58;;;;;;;1.67;0.73;;;19.50;56.20;;;;;;6145590;22;92146;-59
2021/12/02 06:13:25;;;;;;;1.90;0.63;;;19.50;56.20;;;;;;6146359;22;92453;-59
2021/12/02 06:15:51;;;;;;;0.90;0.50;;;19.50;56.30;;;;;;6145226;22;94132;-59
2021/12/02 06:18:17;;;;;;;1.27;0.70;;;19.50;56.40;;;;;;6146599;22;92519;-59
2021/12/02 06:20:42;;;;;;;2.78;0.77;;;19.60;56.30;;;;;;6146266;22;92593;-61
2021/12/02 06:23:08;;;;;;;1.40;0.63;;;19.70;56.30;;;;;;6146579;22;92318;-59
2021/12/02 06:28:00;;;;;;;2.92;0.88;;;19.80;56.20;;;;;;6145736;22;93618;-59
2021/12/02 06:30:26;;;;;;;1.80;0.75;;;19.90;56.30;;;;;;6145375;22;92476;-60
2021/12/02 06:32:52;;;;;;;2.28;0.70;;;20.00;56.20;;;;;;6145420;22;94162;-63
2021/12/02 06:35:18;;;;;;;1.95;0.50;;;20.00;56.10;;;;;;6144094;22;96137;-60
2021/12/02 06:37:46;;;;;;;1.52;0.70;;;20.10;56.30;;;;;;6145685;22;92885;-60
2021/12/02 06:40:13;;;;;;;5.88;0.50;;;20.20;56.30;;;;;;6146187;22;92426;-59
2021/12/02 06:42:40;;;;;;;1.35;0.50;;;20.20;56.20;;;;;;6146656;22;92010;-58
2021/12/02 06:45:06;;;;;;;766.15;132.25;;;20.30;56.20;;;;;;6145758;22;92629;-59
2021/12/02 06:47:37;;;;;;;132.38;19.38;;;20.40;56.20;;;;;;6144208;22;94890;-59
2021/12/02 06:50:05;;;;;;;96.20;13.38;;;20.40;56.10;;;;;;6144684;22;93512;-59
2021/12/02 06:52:32;;;;;;;69.22;9.13;;;20.60;56.50;;;;;;6144393;22;92513;-59
2021/12/02 06:54:58;;;;;;;58.83;7.50;;;20.60;55.90;;;;;;6145239;22;92638;-59
2021/12/02 06:57:23;;;;;;;45.28;6.78;;;20.60;55.80;;;;;;6144837;22;93549;-59
2021/12/02 06:59:49;;;;;;;29.33;5.55;;;20.70;55.70;;;;;;6145884;22;92802;-60
2021/12/02 07:02:20;;;;;;;40.33;6.82;;;20.70;55.70;;;;;;6145958;22;92415;-59
2021/12/02 07:04:48;;;;;;;35.10;5.80;;;20.70;55.80;;;;;;6143550;22;94026;-59
2021/12/02 07:07:14;;;;;;;27.38;4.43;;;20.80;55.80;;;;;;6144310;22;97343;-59
2021/12/02 07:09:40;;;;;;;20.60;3.78;;;20.80;55.90;;;;;;6146287;22;92845;-59
2021/12/02 07:12:06;;;;;;;23.15;4.68;;;20.80;55.90;;;;;;6146547;22;92623;-59
2021/12/02 07:14:35;;;;;;;27.80;5.07;;;20.80;55.80;;;;;;6145380;22;93646;-59
2021/12/02 07:17:01;;;;;;;23.02;5.85;;;20.80;55.50;;;;;;6145813;22;94323;-59
2021/12/02 07:19:26;;;;;;;26.15;4.10;;;20.80;55.30;;;;;;6146058;22;92701;-59
2021/12/02 07:21:52;;;;;;;21.75;4.45;;;20.80;55.10;;;;;;6146119;22;93047;-59
2021/12/02 07:24:17;;;;;;;25.33;5.13;;;20.80;54.90;;;;;;6144774;22;96708;-58
2021/12/02 07:26:46;;;;;;;20.90;4.18;;;20.90;54.80;;;;;;6145463;22;92879;-59
2021/12/02 07:29:15;;;;;;;18.73;4.40;;;20.90;54.70;;;;;;6146132;22;92093;-59
2021/12/02 07:31:42;;;;;;;22.67;5.47;;;20.90;54.60;;;;;;6146678;22;92167;-59
2021/12/02 07:34:08;;;;;;;21.98;4.53;;;20.90;54.40;;;;;;6145058;22;94478;-59
2021/12/02 07:36:35;;;;;;;17.23;4.50;;;20.80;54.10;;;;;;6135483;22;95709;-60
2021/12/02 07:39:06;;;;;;;18.92;4.72;;;20.90;54.20;;;;;;6141887;22;93999;-61
2021/12/02 07:41:32;;;;;;;14.68;3.97;;;20.80;54.00;;;;;;6144327;22;92882;-58
2021/12/02 07:43:58;;;;;;;18.50;4.63;;;20.80;53.80;;;;;;6143721;22;96110;-59
2021/12/02 07:46:24;;;;;;;20.95;4.05;;;20.80;53.60;;;;;;6144400;22;92869;-59
2021/12/02 07:48:52;;;;;;;21.00;3.42;;;20.90;53.60;;;;;;6143696;22;92450;-58
2021/12/02 07:51:18;;;;;;;14.35;3.67;;;20.90;53.50;;;;;;6141815;22;92826;-58
2021/12/02 07:53:46;;;;;;;19.27;4.32;;;20.90;53.90;;;;;;6145645;22;93085;-58
2021/12/02 07:56:18;;;;;;;16.80;3.78;;;20.90;53.40;;;;;;6145973;22;93125;-58
2021/12/02 07:58:46;;;;;;;22.17;5.18;;;20.90;53.30;;;;;;6144248;22;92366;-58
2021/12/02 08:01:14;;;;;;;23.35;4.78;;;20.90;53.20;;;;;;6074752;22;92431;-58
2021/12/02 08:03:44;;;;;;;20.17;4.03;;;20.90;53.20;;;;;;6157895;22;93859;-58
2021/12/02 08:06:11;;;;;;;25.88;4.70;;;20.90;53.10;;;;;;6145747;22;92150;-59
2021/12/02 08:08:41;;;;;;;21.45;4.97;;;20.90;53.10;;;;;;6143830;22;93287;-60
2021/12/02 08:11:07;;;;;;;22.25;4.38;;;20.90;53.10;;;;;;6144205;22;94039;-58
2021/12/02 08:13:33;;;;;;;20.17;4.85;;;20.90;53.00;;;;;;6144408;22;95545;-59
2021/12/02 08:16:00;;;;;;;17.65;4.45;;;20.90;53.00;;;;;;6143973;22;95562;-58
2021/12/02 08:18:25;;;;;;;18.13;4.18;;;20.90;52.90;;;;;;6144382;22;92529;-59
2021/12/02 08:20:51;;;;;;;17.10;4.47;;;20.90;52.80;;;;;;6143974;22;92393;-63
2021/12/02 08:23:18;;;;;;;17.55;4.28;;;20.90;52.70;;;;;;6141743;22;94021;-59
2021/12/02 08:25:44;;;;;;;17.67;3.80;;;20.90;52.70;;;;;;6142415;22;92526;-57
2021/12/02 08:28:09;;;;;;;22.05;4.90;;;20.90;52.60;;;;;;6143412;22;93318;-58
2021/12/02 08:30:37;;;;;;;18.65;4.10;;;20.90;52.50;;;;;;6144686;22;92015;-58
2021/12/02 08:33:03;;;;;;;16.73;3.58;;;20.90;53.00;;;;;;6143110;22;92709;-58
2021/12/02 08:35:30;;;;;;;16.42;3.42;;;20.90;52.40;;;;;;6142839;22;93336;-60
2021/12/02 08:38:03;;;;;;;13.90;4.25;;;20.90;52.30;;;;;;6145012;22;92144;-59
2021/12/02 08:40:33;;;;;;;16.83;3.03;;;20.90;52.30;;;;;;6143543;22;92592;-60
2021/12/02 08:43:00;;;;;;;13.75;4.00;;;20.90;52.30;;;;;;6143187;22;94637;-60
2021/12/02 08:45:27;;;;;;;11.00;3.05;;;20.90;52.20;;;;;;6143712;22;92803;-67
2021/12/02 08:47:58;;;;;;;12.00;3.28;;;20.90;52.40;;;;;;6144201;22;92187;-62
2021/12/02 08:50:24;;;;;;;12.32;2.83;;;20.80;52.40;;;;;;6144395;22;93027;-63
2021/12/02 08:52:51;;;;;;;8.65;2.42;;;20.80;52.30;;;;;;6141572;22;96946;-62
2021/12/02 08:55:19;;;;;;;15.18;3.50;;;20.80;52.30;;;;;;6141987;22;94212;-65
2021/12/02 08:57:47;;;;;;;9.98;2.80;;;20.80;52.30;;;;;;6141877;22;93126;-65
2021/12/02 09:00:16;;;;;;;8.75;2.47;;;20.80;52.10;;;;;;6141611;22;92484;-66
2021/12/02 09:02:41;;;;;;;8.52;2.53;;;20.90;52.20;;;;;;6141881;22;93924;-62
2021/12/02 09:05:07;;;;;;;13.88;3.22;;;20.80;52.00;;;;;;6142989;22;92597;-62
2021/12/02 09:07:33;;;;;;;11.05;2.65;;;20.80;52.10;;;;;;6142032;22;92264;-62
2021/12/02 09:09:59;;;;;;;10.55;2.60;;;20.80;52.10;;;;;;6142052;22;91949;-62
2021/12/02 09:12:24;;;;;;;13.63;2.67;;;20.80;52.10;;;;;;6143151;22;93083;-61
2021/12/02 09:14:51;;;;;;;9.63;2.03;;;20.70;52.20;;;;;;6142269;22;93008;-61
2021/12/02 09:17:18;;;;;;;5.93;2.10;;;20.70;52.20;;;;;;6142580;22;93529;-61
2021/12/02 09:19:43;;;;;;;8.02;2.90;;;20.70;52.20;;;;;;6141386;22;93184;-61
2021/12/02 09:22:10;;;;;;;10.02;1.77;;;20.70;52.20;;;;;;6141320;22;94540;-61
2021/12/02 09:24:39;;;;;;;11.10;2.13;;;20.70;52.20;;;;;;6142579;22;95713;-62
2021/12/02 09:27:05;;;;;;;8.90;2.03;;;20.70;52.10;;;;;;6142965;22;92106;-61
2021/12/02 09:29:31;;;;;;;8.43;2.17;;;20.70;52.10;;;;;;6142483;22;93061;-61
2021/12/02 09:31:57;;;;;;;8.95;1.85;;;20.70;52.10;;;;;;6142646;22;94642;-62
2021/12/02 09:34:22;;;;;;;10.70;1.98;;;20.70;52.00;;;;;;6143314;22;95198;-62
2021/12/02 09:36:49;;;;;;;11.90;2.33;;;20.60;52.10;;;;;;6144217;22;92457;-61
2021/12/02 09:39:15;;;;;;;6.53;2.58;;;20.60;52.00;;;;;;6143080;22;92764;-61
2021/12/02 09:41:44;;;;;;;7.13;2.22;;;20.70;52.00;;;;;;6140844;22;95614;-61
2021/12/02 09:44:10;;;;;;;7.90;1.85;;;20.70;52.50;;;;;;6142911;22;96733;-60
2021/12/02 09:46:38;;;;;;;8.88;2.13;;;20.70;51.90;;;;;;6143688;22;92681;-61
2021/12/02 09:49:04;;;;;;;10.02;2.20;;;20.60;51.90;;;;;;6144582;22;92676;-63
2021/12/02 09:52:26;;;;;;;7.85;1.50;;;20.60;51.90;;;;;;6146145;22;93202;-60
2021/12/02 09:57:23;;;;;;;7.05;1.67;;;20.60;52.60;;;;;;6139299;22;92734;-60
2021/12/02 09:59:52;;;;;;;6.55;1.77;;;20.60;52.60;;;;;;6146105;22;92139;-60
2021/12/02 10:02:20;;;;;;;7.60;2.08;;;20.60;52.40;;;;;;6146402;22;92526;-60
2021/12/02 10:07:31;;;;;;;5.75;1.70;;;20.60;52.30;;;;;;6142298;22;93634;-60
2021/12/02 10:12:30;;;;;;;4.45;1.20;;;20.60;52.10;;;;;;6146611;22;92978;-60
2021/12/02 10:14:58;;;;;;;3.92;1.20;;;20.60;51.90;;;;;;6145740;22;92726;-60
2021/12/02 10:20:18;;;;;;;5.53;1.40;;;20.60;51.80;;;;;;6146134;22;92880;-60
2021/12/02 10:23:25;;;;;;;5.30;1.50;;;20.60;51.80;;;;;;6143881;22;96794;-59
2021/12/02 10:26:04;;;;;;;3.72;0.95;;;20.60;51.60;;;;;;6143706;22;95991;-59
2021/12/02 10:28:42;;;;;;;5.03;1.45;;;20.60;51.60;;;;;;6144171;22;92844;-59
2021/12/02 10:31:10;;;;;;;4.40;1.10;;;20.60;51.60;;;;;;6145584;22;92476;-59
2021/12/02 10:34:08;;;;;;;5.82;1.33;;;20.60;51.60;;;;;;6143718;22;97039;-59
2021/12/02 10:36:43;;;;;;;3.80;1.05;;;20.60;51.60;;;;;;6141796;22;93953;-59
2021/12/02 10:39:11;;;;;;;5.20;1.20;;;20.60;51.50;;;;;;6144503;22;92656;-59
2021/12/02 10:41:42;;;;;;;4.30;1.33;;;20.60;51.50;;;;;;6145959;22;92626;-59
2021/12/02 10:44:17;;;;;;;3.00;1.10;;;20.60;51.40;;;;;;6144691;22;96648;-60
2021/12/02 10:46:54;;;;;;;3.20;1.08;;;20.60;51.40;;;;;;6145384;22;93142;-59
2021/12/02 10:49:21;;;;;;;5.43;1.25;;;20.60;51.40;;;;;;6146086;22;92880;-60
2021/12/02 10:51:52;;;;;;;5.65;1.13;;;20.60;51.30;;;;;;6144506;22;91608;-59
2021/12/02 10:54:34;;;;;;;3.58;1.15;;;20.60;51.30;;;;;;6145373;22;92848;-60
2021/12/02 10:57:07;;;;;;;5.43;1.02;;;20.60;51.20;;;;;;6146679;22;94534;-59
2021/12/02 10:59:42;;;;;;;;;;;20.60;51.20;;;;;;6146980;22;93245;-60
2021/12/02 11:02:24;;;;;;;2.45;0.90;;;20.50;51.20;;;;;;6147174;22;92093;-60
2021/12/02 11:05:18;;;;;;;2.55;0.90;;;20.60;51.20;;;;;;6144631;22;94227;-60
2021/12/02 11:07:50;;;;;;;;;;;20.50;51.00;;;;;;6145755;22;94194;-62
2021/12/02 11:10:16;;;;;;;4.15;1.10;;;20.50;51.10;;;;;;6147243;22;92583;-59
2021/12/02 11:12:48;;;;;;;4.47;0.93;;;20.50;51.00;;;;;;6140236;22;92471;-60
2021/12/02 11:15:21;;;;;;;2.13;0.75;;;20.50;51.10;;;;;;6145899;22;92966;-59
2021/12/02 11:18:11;;;;;;;4.20;0.85;;;20.50;51.00;;;;;;6145189;22;96079;-59
2021/12/02 11:20:43;;;;;;;4.57;1.08;;;20.50;51.00;;;;;;6145145;22;92137;-60
2021/12/02 11:23:18;;;;;;;2.63;1.13;;;20.50;51.00;;;;;;6144882;22;93066;-61
2021/12/02 11:26:07;;;;;;;3.53;0.75;;;20.50;51.10;;;;;;6143700;22;96931;-60
2021/12/02 11:28:36;;;;;;;4.78;0.85;;;20.50;51.10;;;;;;6144730;22;92893;-61
2021/12/02 11:31:14;;;;;;;2.25;0.88;;;20.50;51.00;;;;;;6145452;22;92854;-59
2021/12/02 11:33:41;;;;;;;2.83;0.70;;;20.50;50.90;;;;;;6145364;22;92901;-60
2021/12/02 11:36:22;;;;;;;8.57;1.35;;;20.50;51.00;;;;;;6145096;22;95060;-60
2021/12/02 11:38:48;;;;;;;9.20;1.88;;;20.50;51.00;;;;;;6145398;22;92965;-61
2021/12/02 11:41:16;;;;;;;8.35;2.33;;;20.50;51.20;;;;;;6144632;22;91999;-61
2021/12/02 11:43:41;;;;;;;13.52;2.20;;;20.50;51.30;;;;;;6145125;22;92032;-60
2021/12/02 11:46:09;;;;;;;10.82;2.15;;;20.50;51.30;;;;;;6145200;22;93226;-61
2021/12/02 11:48:41;;;;;;;14.60;3.28;;;20.50;51.30;;;;;;6143874;22;96290;-60
2021/12/02 11:51:17;;;;;;;10.93;2.42;;;20.50;51.40;;;;;;6144736;22;93261;-61
2021/12/02 11:53:43;;;;;;;16.35;3.10;;;20.50;51.50;;;;;;6144713;22;92894;-60
2021/12/02 11:56:14;;;;;;;18.55;2.42;;;20.40;51.50;;;;;;6144927;22;94718;-60
2021/12/02 11:58:40;;;;;;;10.40;2.72;;;20.40;51.70;;;;;;6144664;22;95922;-60
2021/12/02 12:01:09;;;;;;;12.30;2.60;;;20.40;51.80;;;;;;6146705;22;92687;-61
2021/12/02 12:03:47;;;;;;;13.68;2.40;;;20.50;51.70;;;;;;6145064;22;92533;-60
2021/12/02 12:06:32;;;;;;;14.65;3.20;;;20.50;51.60;;;;;;6143955;22;94226;-60
2021/12/02 12:08:58;;;;;;;8.35;2.13;;;20.60;51.60;;;;;;6145280;22;93306;-60
2021/12/02 12:11:29;;;;;;;11.25;3.08;;;20.50;51.60;;;;;;6145928;22;91980;-60
2021/12/02 12:13:59;;;;;;;9.80;2.97;;;20.60;51.50;;;;;;6146106;22;92814;-61
2021/12/02 12:16:45;;;;;;;13.73;2.35;;;20.60;51.60;;;;;;6144831;22;93722;-60
2021/12/02 12:19:28;;;;;;;15.63;3.33;;;20.60;51.60;;;;;;6144636;22;96543;-59
2021/12/02 12:22:05;;;;;;;8.82;2.75;;;20.60;51.60;;;;;;6145175;22;93024;-59
2021/12/02 12:24:39;;;;;;;10.40;2.10;;;20.60;51.50;;;;;;6146193;22;93113;-61
2021/12/02 12:37:36;;;;;;;7.80;2.00;;;20.50;51.80;;;;;;6175271;22;92353;-59
2021/12/02 12:40:19;;;;;;;6.60;1.77;;;20.50;51.90;;;;;;6174014;22;93714;-60
2021/12/02 12:43:02;;;;;;;8.15;1.88;;;20.40;51.90;;;;;;6175686;22;93261;-59
2021/12/02 12:45:37;;;;;;;5.35;1.42;;;20.50;51.90;;;;;;6173490;22;93041;-59
2021/12/02 12:48:24;;;;;;;4.55;1.40;;;20.50;51.90;;;;;;6174038;22;94936;-59
2021/12/02 12:50:50;;;;;;;5.07;1.23;;;20.60;51.80;;;;;;6174164;22;93745;-59
2021/12/02 12:53:20;;;;;;;7.10;1.45;;;20.60;51.70;;;;;;6148603;22;92803;-59
2021/12/02 12:55:50;;;;;;;9.07;2.08;;;20.70;51.60;;;;;;6173795;22;92049;-60
2021/12/02 12:58:25;;;;;;;4.72;1.30;;;20.70;51.50;;;;;;6172649;22;94086;-59
2021/12/02 13:00:53;;;;;;;4.65;1.27;;;20.70;51.40;;;;;;6175930;22;94336;-59
2021/12/02 13:03:41;;;;;;;7.53;1.42;;;20.70;51.30;;;;;;6174173;22;92813;-59
2021/12/02 13:08:49;;;;;;;4.95;1.23;;;20.80;51.20;;;;;;6173586;22;93977;-59
2021/12/02 13:11:19;;;;;;;6.82;1.33;;;20.80;51.10;;;;;;6173751;22;96276;-59
2021/12/02 13:13:47;;;;;;;4.05;1.52;;;20.80;51.10;;;;;;6176049;22;92484;-59
2021/12/02 13:16:15;;;;;;;2.72;1.20;;;20.80;51.00;;;;;;6176188;22;92238;-60
2021/12/02 13:18:59;;;;;;;4.05;1.20;;;20.80;51.00;;;;;;6174706;22;93039;-60
2021/12/02 13:21:28;;;;;;;2.08;0.75;;;20.80;50.90;;;;;;6174830;22;94024;-59
2021/12/02 13:24:13;;;;;;;4.68;1.40;;;20.70;50.90;;;;;;6174798;22;92132;-59
2021/12/02 13:26:52;;;;;;;2.63;1.08;;;20.70;51.00;;;;;;6174320;22;91964;-60
2021/12/02 13:29:35;;;;;;;2.83;1.10;;;20.70;51.00;;;;;;6174948;22;93008;-60
2021/12/02 13:32:11;;;;;;;4.07;1.17;;;20.70;50.90;;;;;;6173471;22;93870;-59
2021/12/02 13:34:37;;;;;;;4.50;0.90;;;20.70;50.90;;;;;;6150667;22;93569;-59
2021/12/02 13:37:05;;;;;;;6.35;1.35;;;20.70;50.90;;;;;;6145411;22;92797;-60
2021/12/02 13:39:33;;;;;;;3.72;1.08;;;20.60;50.90;;;;;;6144577;22;93677;-60
2021/12/02 13:42:08;;;;;;;5.25;1.63;;;20.60;51.00;;;;;;6144735;22;92495;-60
2021/12/02 13:44:38;;;;;;;4.95;1.52;;;20.60;51.00;;;;;;6143431;22;93062;-60